createdAt,value
2019-04-06T00:01:48.341Z,16.50
2019-04-06T00:04:20.073Z,16.00
2019-04-06T00:06:51.462Z,14.95
2019-04-06T00:09:23.211Z,14.80
2019-04-06T00:11:54.777Z,14.30
2019-04-06T00:14:26.564Z,15.25
2019-04-06T00:16:58.245Z,15.85
2019-04-06T00:19:29.388Z,15.55
2019-04-06T00:22:01.177Z,15.40
2019-04-06T00:24:32.859Z,15.23
2019-04-06T00:27:21.353Z,15.40
2019-04-06T00:29:53.010Z,15.95
2019-04-06T00:32:32.232Z,15.93
2019-04-06T00:35:03.909Z,16.45
2019-04-06T00:37:35.758Z,16.07
2019-04-06T00:40:07.408Z,17.27
2019-04-06T00:42:38.734Z,15.65
2019-04-06T00:45:10.524Z,16.52
2019-04-06T00:47:41.655Z,16.90
2019-04-06T00:50:12.933Z,16.93
2019-04-06T00:52:44.594Z,16.55
2019-04-06T00:55:16.099Z,17.42
2019-04-06T00:57:47.517Z,16.40
2019-04-06T01:00:19.433Z,17.42
2019-04-06T01:02:50.788Z,17.70
2019-04-06T01:05:22.709Z,19.05
2019-04-06T01:07:54.709Z,18.40
2019-04-06T01:10:25.801Z,20.68
2019-04-06T01:12:57.295Z,20.75
2019-04-06T01:15:28.897Z,21.48
2019-04-06T01:18:00.528Z,22.37
2019-04-06T01:20:31.867Z,25.52
2019-04-06T01:23:02.997Z,26.37
2019-04-06T01:25:35.619Z,25.80
2019-04-06T01:28:06.930Z,29.65
2019-04-06T01:30:38.592Z,29.10
2019-04-06T01:33:10.003Z,30.72
2019-04-06T01:35:41.480Z,31.85
2019-04-06T01:38:13.144Z,33.53
2019-04-06T01:40:44.698Z,33.27
2019-04-06T01:43:15.943Z,35.75
2019-04-06T01:45:47.500Z,37.90
2019-04-06T01:48:19.041Z,40.28
2019-04-06T01:50:50.594Z,37.98
2019-04-06T01:53:22.260Z,37.93
2019-04-06T01:55:53.813Z,40.23
2019-04-06T01:58:25.152Z,39.78
2019-04-06T02:00:58.032Z,41.95
2019-04-06T02:03:29.492Z,40.70
2019-04-06T02:06:01.363Z,37.77
2019-04-06T02:08:33.020Z,34.35
2019-04-06T02:11:04.203Z,32.08
2019-04-06T02:13:36.123Z,30.05
2019-04-06T02:16:07.575Z,30.43
2019-04-06T02:18:38.823Z,30.75
2019-04-06T02:21:10.057Z,30.12
2019-04-06T02:23:41.312Z,31.40
2019-04-06T02:26:13.093Z,30.65
2019-04-06T02:28:44.689Z,30.45
2019-04-06T02:31:20.266Z,31.75
2019-04-06T02:34:05.347Z,32.78
2019-04-06T02:36:38.126Z,31.87
2019-04-06T02:39:17.142Z,31.42
2019-04-06T02:41:53.132Z,32.55
2019-04-06T02:44:24.450Z,32.42
2019-04-06T02:46:55.795Z,31.00
2019-04-06T02:49:27.361Z,31.05
2019-04-06T02:51:59.741Z,32.00
2019-04-06T02:54:32.310Z,29.85
2019-04-06T02:57:03.663Z,30.23
2019-04-06T02:59:34.805Z,29.27
2019-04-06T03:02:06.549Z,30.30
2019-04-06T03:04:37.932Z,29.67
2019-04-06T03:07:09.455Z,30.15
2019-04-06T03:09:41.226Z,29.07
2019-04-06T03:12:12.774Z,29.27
2019-04-06T03:14:44.921Z,29.65
2019-04-06T03:17:16.387Z,30.08
2019-04-06T03:19:47.875Z,29.93
2019-04-06T03:22:19.792Z,29.63
2019-04-06T03:24:50.950Z,28.87
2019-04-06T03:27:22.504Z,28.50
2019-04-06T03:29:58.355Z,28.45
2019-04-06T03:32:27.438Z,30.12
2019-04-06T03:34:58.966Z,32.40
2019-04-06T03:37:30.354Z,32.58
2019-04-06T03:40:01.809Z,37.30
2019-04-06T03:42:33.211Z,43.08
2019-04-06T03:45:06.991Z,46.85
2019-04-06T03:47:38.617Z,47.80
2019-04-06T03:50:10.997Z,47.15
2019-04-06T03:52:42.235Z,44.45
2019-04-06T03:55:13.833Z,42.33
2019-04-06T03:57:45.447Z,39.30
2019-04-06T04:00:16.579Z,29.05
2019-04-06T04:02:48.303Z,24.25
2019-04-06T04:05:19.877Z,27.80
2019-04-06T04:07:51.543Z,29.37
2019-04-06T04:10:34.731Z,20.05
2019-04-06T04:13:06.247Z,25.60
2019-04-06T04:15:38.124Z,24.12
2019-04-06T04:18:09.683Z,23.22
2019-04-06T04:20:40.979Z,22.65
2019-04-06T04:23:12.543Z,24.75
2019-04-06T04:25:44.022Z,46.85
2019-04-06T04:28:15.535Z,50.48
2019-04-06T04:30:47.003Z,53.85
2019-04-06T04:33:18.802Z,54.33
2019-04-06T04:35:50.334Z,55.60
2019-04-06T04:38:21.666Z,53.20
2019-04-06T04:40:53.539Z,52.95
2019-04-06T04:43:25.965Z,52.85
2019-04-06T04:45:57.572Z,53.00
2019-04-06T04:48:29.317Z,52.00
2019-04-06T04:51:01.140Z,54.20
2019-04-06T04:53:32.524Z,52.78
2019-04-06T04:56:03.873Z,51.77
2019-04-06T04:58:35.435Z,53.90
2019-04-06T05:01:06.778Z,51.10
2019-04-06T05:03:38.371Z,55.00
2019-04-06T05:06:09.858Z,60.92
2019-04-06T05:08:41.434Z,62.30
2019-04-06T05:11:13.120Z,58.83
2019-04-06T05:13:44.745Z,56.73
2019-04-06T05:16:16.115Z,61.58
2019-04-06T05:18:47.537Z,58.45
2019-04-06T05:21:18.979Z,52.88
2019-04-06T05:23:50.534Z,50.92
2019-04-06T05:26:22.157Z,47.13
2019-04-06T05:28:53.871Z,38.70
2019-04-06T05:31:25.914Z,38.58
2019-04-06T05:33:57.377Z,40.25
2019-04-06T05:36:29.581Z,34.65
2019-04-06T05:39:01.192Z,32.78
2019-04-06T05:41:32.946Z,28.65
2019-04-06T05:44:04.101Z,25.97
2019-04-06T05:46:35.760Z,26.65
2019-04-06T05:49:07.241Z,26.25
2019-04-06T05:51:38.870Z,25.52
2019-04-06T05:54:10.772Z,22.55
2019-04-06T05:56:42.127Z,23.45
2019-04-06T05:59:13.775Z,23.07
2019-04-06T06:01:45.286Z,25.15
2019-04-06T06:04:16.642Z,22.80
2019-04-06T06:06:48.185Z,16.93
2019-04-06T06:09:19.934Z,21.07
2019-04-06T06:11:51.431Z,18.40
2019-04-06T06:14:22.963Z,19.77
2019-04-06T06:16:54.618Z,19.05
2019-04-06T06:19:25.688Z,17.85
2019-04-06T06:21:57.507Z,19.70
2019-04-06T06:24:28.653Z,21.37
2019-04-06T06:27:00.500Z,26.52
2019-04-06T06:29:31.960Z,21.25
2019-04-06T06:32:04.034Z,16.05
2019-04-06T06:34:35.264Z,18.12
2019-04-06T06:37:06.663Z,32.55
2019-04-06T06:39:38.377Z,22.07
2019-04-06T06:42:17.719Z,15.80
2019-04-06T06:44:48.490Z,16.05
2019-04-06T06:47:20.214Z,14.65
2019-04-06T06:49:51.564Z,14.63
2019-04-06T06:52:23.318Z,14.65
2019-04-06T06:54:54.799Z,15.25
2019-04-06T06:57:26.630Z,17.35
2019-04-06T06:59:58.118Z,13.20
2019-04-06T07:02:29.824Z,14.98
2019-04-06T07:05:01.381Z,14.65
2019-04-06T07:07:34.341Z,14.87
2019-04-06T07:10:07.839Z,14.15
2019-04-06T07:12:39.332Z,13.22
2019-04-06T07:15:10.789Z,13.55
2019-04-06T07:17:42.550Z,14.00
2019-04-06T07:20:13.802Z,13.13
2019-04-06T07:22:45.437Z,14.43
2019-04-06T07:25:16.567Z,13.98
2019-04-06T07:27:49.168Z,12.93
2019-04-06T07:30:20.916Z,13.65
2019-04-06T07:32:55.156Z,13.55
2019-04-06T07:35:26.068Z,12.23
2019-04-06T07:37:57.419Z,13.68
2019-04-06T07:40:28.945Z,14.83
2019-04-06T07:43:00.309Z,12.85
2019-04-06T07:45:31.875Z,15.35
2019-04-06T07:48:03.519Z,10.95
2019-04-06T07:50:35.185Z,9.55
2019-04-06T07:53:06.545Z,12.40
2019-04-06T07:55:37.882Z,10.90
2019-04-06T07:58:09.667Z,11.43
2019-04-06T08:00:40.970Z,9.28
2019-04-06T08:03:12.330Z,12.97
2019-04-06T08:05:43.970Z,13.43
2019-04-06T08:08:15.518Z,11.28
2019-04-06T08:10:47.205Z,10.72
2019-04-06T08:13:18.431Z,9.83
2019-04-06T08:15:50.207Z,10.95
2019-04-06T08:18:21.592Z,10.17
2019-04-06T08:20:53.098Z,10.70
2019-04-06T08:23:24.538Z,10.90
2019-04-06T08:25:56.402Z,11.22
2019-04-06T08:28:28.183Z,11.55
2019-04-06T08:31:00.487Z,11.28
2019-04-06T08:33:33.846Z,11.63
2019-04-06T08:36:06.976Z,10.87
2019-04-06T08:38:38.795Z,10.98
2019-04-06T08:41:10.281Z,10.63
2019-04-06T08:43:41.968Z,10.70
2019-04-06T08:46:13.438Z,10.98
2019-04-06T08:48:45.662Z,11.12
2019-04-06T08:51:20.773Z,10.50
2019-04-06T08:53:52.126Z,10.10
2019-04-06T08:56:24.176Z,10.70
2019-04-06T08:58:56.143Z,11.05
2019-04-06T09:01:27.288Z,10.00
2019-04-06T09:03:58.993Z,9.83
2019-04-06T09:06:30.331Z,9.85
2019-04-06T09:09:02.380Z,9.73
2019-04-06T09:11:34.613Z,9.38
2019-04-06T09:14:08.063Z,8.90
2019-04-06T09:16:40.904Z,8.85
2019-04-06T09:19:12.568Z,8.80
2019-04-06T09:21:44.284Z,8.70
2019-04-06T09:24:15.494Z,9.30
2019-04-06T09:26:48.471Z,9.03
2019-04-06T09:29:24.118Z,8.78
2019-04-06T09:31:53.434Z,9.05
2019-04-06T09:34:24.979Z,9.40
2019-04-06T09:36:56.703Z,9.53
2019-04-06T09:39:28.463Z,9.75
2019-04-06T09:42:00.436Z,10.03
2019-04-06T09:44:36.812Z,9.43
2019-04-06T09:47:09.899Z,9.68
2019-04-06T09:49:45.744Z,9.60
2019-04-06T09:52:18.516Z,9.40
2019-04-06T09:54:54.175Z,9.28
2019-04-06T09:57:32.896Z,9.55
2019-04-06T10:00:12.219Z,9.73
2019-04-06T10:03:00.500Z,9.58
2019-04-06T10:05:39.914Z,9.28
2019-04-06T10:08:16.793Z,10.13
2019-04-06T10:10:49.573Z,10.23
2019-04-06T10:13:25.541Z,10.60
2019-04-06T10:16:01.478Z,10.10
2019-04-06T10:18:40.512Z,10.68
2019-04-06T10:21:29.790Z,11.00
2019-04-06T10:24:05.655Z,10.60
2019-04-06T10:26:39.208Z,10.15
2019-04-06T10:29:14.894Z,10.40
2019-04-06T10:31:47.911Z,10.35
2019-04-06T10:34:39.035Z,11.18
2019-04-06T10:37:14.834Z,10.53
2019-04-06T10:39:53.918Z,10.90
2019-04-06T10:42:35.662Z,11.40
2019-04-06T10:45:25.876Z,10.93
2019-04-06T10:48:11.127Z,10.77
2019-04-06T10:50:44.326Z,10.45
2019-04-06T10:53:30.013Z,10.53
2019-04-06T10:56:03.049Z,11.57
2019-04-06T10:58:54.625Z,11.15
2019-04-06T11:01:33.882Z,10.72
2019-04-06T11:04:12.925Z,11.55
2019-04-06T11:06:46.625Z,11.43
2019-04-06T11:09:25.966Z,11.00
2019-04-06T11:12:14.462Z,10.50
2019-04-06T11:14:47.806Z,10.75
2019-04-06T11:17:37.196Z,10.90
2019-04-06T11:20:13.365Z,10.07
2019-04-06T11:23:03.204Z,10.10
2019-04-06T11:25:54.903Z,9.83
2019-04-06T11:28:28.185Z,10.03
2019-04-06T11:31:17.486Z,9.58
2019-04-06T11:33:57.266Z,9.33
2019-04-06T11:36:39.314Z,9.23
2019-04-06T11:39:12.747Z,9.90
2019-04-06T11:42:06.309Z,10.03
2019-04-06T11:44:45.614Z,9.60
2019-04-06T11:47:30.909Z,9.63
2019-04-06T11:50:04.308Z,10.38
2019-04-06T11:52:44.695Z,10.80
2019-04-06T11:55:24.083Z,10.08
2019-04-06T11:58:15.546Z,10.88
2019-04-06T12:01:01.307Z,10.70
2019-04-06T12:03:34.630Z,10.00
2019-04-06T12:06:08.019Z,9.65
2019-04-06T12:08:44.103Z,9.85
2019-04-06T12:11:17.292Z,9.80
2019-04-06T12:13:51.886Z,9.35
2019-04-06T12:16:40.728Z,9.35
2019-04-06T12:19:20.268Z,9.40
2019-04-06T12:21:56.067Z,9.25
2019-04-06T12:24:45.560Z,9.83
2019-04-06T12:27:24.432Z,9.98
2019-04-06T12:29:57.620Z,9.80
2019-04-06T12:32:36.742Z,9.90
2019-04-06T12:35:09.939Z,10.28
2019-04-06T12:37:46.019Z,9.48
2019-04-06T12:40:35.363Z,9.43
2019-04-06T12:43:11.105Z,9.55
2019-04-06T12:45:44.123Z,9.78
2019-04-06T12:48:17.343Z,9.93
2019-04-06T12:50:50.535Z,9.70
2019-04-06T12:53:35.552Z,9.80
2019-04-06T12:56:11.527Z,9.25
2019-04-06T12:59:02.414Z,10.07
2019-04-06T13:01:41.246Z,9.50
2019-04-06T13:04:20.168Z,10.43
2019-04-06T13:07:11.787Z,10.20
2019-04-06T13:10:00.989Z,10.05
2019-04-06T13:12:42.894Z,9.40
2019-04-06T13:15:25.050Z,9.33
2019-04-06T13:18:10.671Z,9.73
2019-04-06T13:20:58.795Z,9.50
2019-04-06T13:23:33.176Z,8.95
2019-04-06T13:26:09.042Z,9.63
2019-04-06T13:28:42.023Z,9.45
2019-04-06T13:31:15.418Z,9.60
2019-04-06T13:33:54.717Z,9.75
2019-04-06T13:36:46.351Z,11.28
2019-04-06T13:39:25.228Z,9.58
2019-04-06T13:42:04.565Z,9.83
2019-04-06T13:44:37.294Z,10.40
2019-04-06T13:47:16.169Z,8.93
2019-04-06T13:50:01.219Z,9.73
2019-04-06T13:52:36.779Z,9.20
2019-04-06T13:55:18.899Z,9.50
2019-04-06T13:57:51.979Z,9.50
2019-04-06T14:00:41.349Z,13.57
2019-04-06T14:03:29.323Z,10.23
2019-04-06T14:06:07.102Z,9.40
2019-04-06T14:08:40.164Z,10.30
2019-04-06T14:11:19.615Z,9.03
2019-04-06T14:13:53.095Z,10.78
2019-04-06T14:16:42.352Z,9.83
2019-04-06T14:19:18.855Z,9.60
2019-04-06T14:22:01.437Z,9.60
2019-04-06T14:24:51.041Z,10.53
2019-04-06T14:27:26.784Z,9.30
2019-04-06T14:30:08.795Z,8.45
2019-04-06T14:32:54.091Z,8.85
2019-04-06T14:35:39.137Z,9.73
2019-04-06T14:38:25.446Z,9.30
2019-04-06T14:41:04.490Z,8.80
2019-04-06T14:43:37.860Z,9.30
2019-04-06T14:46:23.752Z,9.57
2019-04-06T14:49:10.323Z,8.70
2019-04-06T14:51:50.248Z,9.85
2019-04-06T14:54:26.215Z,9.15
2019-04-06T14:56:58.205Z,9.93
2019-04-06T14:59:34.426Z,9.43
2019-04-06T15:02:07.559Z,9.05
2019-04-06T15:04:47.000Z,9.40
2019-04-06T15:07:22.979Z,9.23
2019-04-06T15:09:58.730Z,9.38
2019-04-06T15:12:34.527Z,8.80
2019-04-06T15:15:18.626Z,9.33
2019-04-06T15:17:51.519Z,9.53
2019-04-06T15:20:39.502Z,8.60
2019-04-06T15:23:18.768Z,8.50
2019-04-06T15:26:01.223Z,8.63
2019-04-06T15:28:37.161Z,8.78
2019-04-06T15:31:13.357Z,9.00
2019-04-06T15:34:06.070Z,27.42
2019-04-06T15:36:42.028Z,11.50
2019-04-06T15:39:33.783Z,10.13
2019-04-06T15:42:09.505Z,9.65
2019-04-06T15:44:46.071Z,9.90
2019-04-06T15:47:34.251Z,11.28
2019-04-06T15:50:24.612Z,11.90
2019-04-06T15:52:57.453Z,12.43
2019-04-06T15:55:30.725Z,12.13
2019-04-06T15:58:07.306Z,10.55
2019-04-06T16:00:43.791Z,10.15
2019-04-06T16:03:19.783Z,10.13
2019-04-06T16:06:07.926Z,10.68
2019-04-06T16:08:50.485Z,10.72
2019-04-06T16:11:23.838Z,9.60
2019-04-06T16:14:06.545Z,9.85
2019-04-06T16:16:51.851Z,10.30
2019-04-06T16:19:40.427Z,10.40
2019-04-06T16:22:13.886Z,10.43
2019-04-06T16:24:50.419Z,11.10
2019-04-06T16:27:42.541Z,11.43
2019-04-06T16:30:29.002Z,11.45
2019-04-06T16:33:08.960Z,11.70
2019-04-06T16:35:51.135Z,11.88
2019-04-06T16:38:40.237Z,12.75
2019-04-06T16:41:29.889Z,12.05
2019-04-06T16:44:02.964Z,12.80
2019-04-06T16:46:54.734Z,14.05
2019-04-06T16:49:30.446Z,13.60
2019-04-06T16:52:06.914Z,12.75
2019-04-06T16:54:45.589Z,13.05
2019-04-06T16:57:21.786Z,12.23
2019-04-06T16:59:58.474Z,12.40
2019-04-06T17:02:37.796Z,11.45
2019-04-06T17:05:13.671Z,11.13
2019-04-06T17:07:46.546Z,11.80
2019-04-06T17:10:35.884Z,11.75
2019-04-06T17:13:20.907Z,12.00
2019-04-06T17:16:00.737Z,11.30
2019-04-06T17:18:49.086Z,11.55
2019-04-06T17:21:40.087Z,12.00
2019-04-06T17:24:14.016Z,11.73
2019-04-06T17:26:50.351Z,12.10
2019-04-06T17:29:23.655Z,11.83
2019-04-06T17:32:05.859Z,12.20
2019-04-06T17:34:38.605Z,12.35
2019-04-06T17:37:12.277Z,12.98
2019-04-06T17:40:01.979Z,12.75
2019-04-06T17:42:39.425Z,12.95
2019-04-06T17:45:27.592Z,14.13
2019-04-06T17:48:04.486Z,13.45
2019-04-06T17:50:55.545Z,13.58
2019-04-06T17:53:37.880Z,13.70
2019-04-06T17:56:16.888Z,13.68
2019-04-06T17:59:08.731Z,14.30
2019-04-06T18:01:47.828Z,14.25
2019-04-06T18:04:30.045Z,14.43
2019-04-06T18:07:18.287Z,13.45
2019-04-06T18:09:54.234Z,13.93
2019-04-06T18:12:44.885Z,13.90
2019-04-06T18:15:16.533Z,13.23
2019-04-06T18:17:48.259Z,13.47
2019-04-06T18:20:19.670Z,13.48
2019-04-06T18:22:50.956Z,14.33
2019-04-06T18:25:22.511Z,14.40
2019-04-06T18:27:53.545Z,14.43
2019-04-06T18:30:25.973Z,14.27
2019-04-06T18:33:03.295Z,14.95
2019-04-06T18:35:35.177Z,13.88
2019-04-06T18:38:14.847Z,14.15
2019-04-06T18:40:46.166Z,14.60
2019-04-06T18:43:17.480Z,14.68
2019-04-06T18:45:49.272Z,14.25
2019-04-06T18:48:20.447Z,13.75
2019-04-06T18:50:51.879Z,14.10
2019-04-06T18:53:23.806Z,14.73
2019-04-06T18:55:56.036Z,14.13
2019-04-06T18:58:27.805Z,14.17
2019-04-06T19:00:59.530Z,15.03
2019-04-06T19:03:31.281Z,15.20
2019-04-06T19:06:02.726Z,15.83
2019-04-06T19:08:34.303Z,14.60
2019-04-06T19:11:06.975Z,15.00
2019-04-06T19:13:39.009Z,15.32
2019-04-06T19:16:11.656Z,14.43
2019-04-06T19:18:43.363Z,14.53
2019-04-06T19:21:14.849Z,14.13
2019-04-06T19:23:46.465Z,13.70
2019-04-06T19:26:18.739Z,14.30
2019-04-06T19:28:50.431Z,13.83
2019-04-06T19:31:21.962Z,13.03
2019-04-06T19:33:53.702Z,14.60
2019-04-06T19:36:24.837Z,13.50
2019-04-06T19:38:56.605Z,13.65
2019-04-06T19:41:27.952Z,12.85
2019-04-06T19:43:59.999Z,13.60
2019-04-06T19:46:31.298Z,13.95
2019-04-06T19:49:02.911Z,13.83
2019-04-06T19:51:34.194Z,13.88
2019-04-06T19:54:06.470Z,14.73
2019-04-06T19:56:38.581Z,14.40
2019-04-06T19:59:12.820Z,14.68
2019-04-06T20:01:43.455Z,14.90
2019-04-06T20:04:15.064Z,14.25
2019-04-06T20:06:46.652Z,15.25
2019-04-06T20:09:18.619Z,15.03
2019-04-06T20:11:50.067Z,15.73
2019-04-06T20:14:21.916Z,14.65
2019-04-06T20:16:53.199Z,15.47
2019-04-06T20:19:25.146Z,15.65
2019-04-06T20:21:56.621Z,16.35
2019-04-06T20:24:28.351Z,15.72
2019-04-06T20:27:00.427Z,15.20
2019-04-06T20:29:32.829Z,16.30
2019-04-06T20:32:05.520Z,16.35
2019-04-06T20:34:36.923Z,16.25
2019-04-06T20:37:08.427Z,16.73
2019-04-06T20:39:39.745Z,16.05
2019-04-06T20:42:11.269Z,16.25
2019-04-06T20:44:42.640Z,16.12
2019-04-06T20:47:14.149Z,16.40
2019-04-06T20:49:46.291Z,15.65
2019-04-06T20:52:18.292Z,16.50
2019-04-06T20:54:49.762Z,16.65
2019-04-06T20:57:21.109Z,16.50
2019-04-06T20:59:52.342Z,15.83
2019-04-06T21:02:24.009Z,16.35
2019-04-06T21:04:55.151Z,16.67
2019-04-06T21:07:26.545Z,15.75
2019-04-06T21:09:58.267Z,15.88
2019-04-06T21:12:29.609Z,17.00
2019-04-06T21:15:01.105Z,15.78
2019-04-06T21:17:33.501Z,16.67
2019-04-06T21:20:09.482Z,16.37
2019-04-06T21:22:41.852Z,16.45
2019-04-06T21:25:13.612Z,16.20
2019-04-06T21:27:44.945Z,16.82
2019-04-06T21:30:16.318Z,16.00
2019-04-06T21:32:48.028Z,16.67
2019-04-06T21:35:20.450Z,17.27
2019-04-06T21:37:52.777Z,16.60
2019-04-06T21:40:25.065Z,16.32
2019-04-06T21:42:56.685Z,17.73
2019-04-06T21:45:28.672Z,17.00
2019-04-06T21:48:00.506Z,17.87
2019-04-06T21:50:32.221Z,17.82
2019-04-06T21:53:03.893Z,17.50
2019-04-06T21:55:35.657Z,17.63
2019-04-06T21:58:07.331Z,17.80
2019-04-06T22:00:43.602Z,17.50
2019-04-06T22:03:15.621Z,18.02
2019-04-06T22:05:48.785Z,16.35
2019-04-06T22:08:20.450Z,16.30
2019-04-06T22:10:52.785Z,16.85
2019-04-06T22:13:24.953Z,16.75
2019-04-06T22:15:56.164Z,18.07
2019-04-06T22:18:28.249Z,17.47
2019-04-06T22:20:59.605Z,17.77
2019-04-06T22:23:41.652Z,17.90
2019-04-06T22:26:04.549Z,17.20
2019-04-06T22:28:36.658Z,18.15
2019-04-06T22:31:08.196Z,17.32
2019-04-06T22:33:39.898Z,18.10
2019-04-06T22:36:11.040Z,18.27
2019-04-06T22:38:42.490Z,18.27
2019-04-06T22:41:14.977Z,18.07
2019-04-06T22:43:46.945Z,17.52
2019-04-06T22:46:18.503Z,17.98
2019-04-06T22:48:49.955Z,18.70
2019-04-06T22:51:21.921Z,18.87
2019-04-06T22:53:53.153Z,18.15
2019-04-06T22:56:25.009Z,17.60
2019-04-06T22:58:56.253Z,18.52
2019-04-06T23:01:28.924Z,19.25
2019-04-06T23:04:07.862Z,19.17
2019-04-06T23:06:47.021Z,19.50
2019-04-06T23:09:18.391Z,18.87
2019-04-06T23:11:50.425Z,18.37
2019-04-06T23:14:22.463Z,19.45
2019-04-06T23:16:54.228Z,18.37
2019-04-06T23:19:25.989Z,19.52
2019-04-06T23:21:57.565Z,18.92
2019-04-06T23:24:29.750Z,18.75
2019-04-06T23:27:01.364Z,19.27
2019-04-06T23:29:32.794Z,19.98
2019-04-06T23:32:04.372Z,18.42
2019-04-06T23:34:36.192Z,19.02
2019-04-06T23:37:08.364Z,18.70
2019-04-06T23:39:40.258Z,19.23
2019-04-06T23:42:11.811Z,19.70
2019-04-06T23:44:44.338Z,19.17
2019-04-06T23:47:16.517Z,19.65
2019-04-06T23:49:48.103Z,19.25
2019-04-06T23:52:19.757Z,19.23
2019-04-06T23:54:52.026Z,19.65
2019-04-06T23:57:23.816Z,19.20
2019-04-06T23:59:55.471Z,19.15
